Time;durP1;ratioP1;P1;durP2;ratioP2;P2;SDS_P1;SDS_P2;PMS_P1;PMS_P2;Temp;Humidity;BMP_temperature;BMP_pressure;BME280_temperature;BME280_humidity;BME280_pressure;Samples;Min_cycle;Max_cycle;Signal;HPM_P1;HPM_P2
2023/09/23 00:01:19;;;;;;;;;;;;;;;9.49;100.00;100693.53;4991395;28;19925;-71
2023/09/23 00:03:44;;;;;;;;;;;;;;;9.50;100.00;100692.56;4994422;28;19925;-70
2023/09/23 00:06:10;;;;;;;;;;;;;;;9.47;100.00;100699.00;4994351;28;19922;-71
2023/09/23 00:08:35;;;;;;;;;;;;;;;9.46;100.00;100697.28;4992072;28;19917;-71
2023/09/23 00:11:01;;;;;;;;;;;;;;;9.36;100.00;100691.78;4977416;28;20699;-71
2023/09/23 00:13:28;;;;;;;;;;;;;;;9.34;100.00;100696.38;4993995;28;19968;-71
2023/09/23 00:15:55;;;;;;;;;;;;;;;9.37;100.00;100703.34;4998107;28;19932;-71
2023/09/23 00:18:21;;;;;;;;;;;;;;;9.33;100.00;100709.91;4998774;28;20378;-71
2023/09/23 00:20:46;;;;;;;;;;;;;;;9.39;100.00;100709.47;4979453;28;19918;-71
2023/09/23 00:23:12;;;;;;;;;;;;;;;9.38;100.00;100715.78;4988949;28;20202;-71
2023/09/23 00:25:38;;;;;;;;;;;;;;;9.37;100.00;100708.72;4991551;28;20916;-71
2023/09/23 00:28:08;;;;;;;;;;;;;;;9.38;100.00;100713.94;4993274;28;19967;-73
2023/09/23 00:30:34;;;;;;;;;;;;;;;9.36;100.00;100715.03;4991906;28;19967;-71
2023/09/23 00:32:59;;;;;;;;;;;;;;;9.35;100.00;100718.69;4992119;28;19921;-71
2023/09/23 00:35:25;;;;;;;;;;;;;;;9.30;100.00;100698.44;5001357;28;19921;-71
2023/09/23 00:37:50;;;;;;;;;;;;;;;9.26;100.00;100705.00;5000843;28;20347;-71
2023/09/23 00:40:27;;;;;;;;;;;;;;;9.23;100.00;100710.59;4993581;28;20378;-72
2023/09/23 00:42:55;;;;;;;;;;;;;;;9.20;100.00;100699.25;5000057;28;19981;-72
2023/09/23 00:45:22;;;;;;;;;;;;;;;9.13;100.00;100709.56;4991564;28;20263;-71
2023/09/23 00:47:47;;;;;;;;;;;;;;;9.11;100.00;100708.84;4981545;28;20202;-71
2023/09/23 00:50:18;;;;;;;;;;;;;;;9.10;100.00;100705.28;4996593;28;20018;-72
2023/09/23 00:52:48;;;;;;;;;;;;;;;9.06;100.00;100719.03;4975751;28;19959;-71
2023/09/23 00:55:16;;;;;;;;;;;;;;;9.06;100.00;100711.81;4998769;28;19921;-71
2023/09/23 00:57:41;;;;;;;;;;;;;;;9.11;100.00;100717.72;5010170;28;19956;-71
2023/09/23 01:00:11;;;;;;;;;;;;;;;9.13;100.00;100709.56;4979831;28;19922;-72
2023/09/23 01:02:37;;;;;;;;;;;;;;;9.13;100.00;100714.94;4998769;28;19929;-72
2023/09/23 01:05:05;;;;;;;;;;;;;;;9.17;100.00;100724.44;5003124;28;19996;-73
2023/09/23 01:07:31;;;;;;;;;;;;;;;9.14;100.00;100717.47;4974856;28;19923;-73
2023/09/23 01:09:58;;;;;;;;;;;;;;;9.18;100.00;100714.59;4986623;28;20294;-72
2023/09/23 01:12:23;;;;;;;;;;;;;;;9.28;100.00;100710.22;5000547;28;21463;-71
2023/09/23 01:14:48;;;;;;;;;;;;;;;9.32;100.00;100708.19;5000837;28;19961;-71
2023/09/23 01:17:17;;;;;;;;;;;;;;;9.32;100.00;100716.25;4999017;28;20016;-73
2023/09/23 01:19:42;;;;;;;;;;;;;;;9.35;100.00;100718.69;4995951;28;19989;-74
2023/09/23 01:22:08;;;;;;;;;;;;;;;9.43;100.00;100727.88;5000828;28;19940;-73
2023/09/23 01:24:34;;;;;;;;;;;;;;;9.41;100.00;100712.84;4998082;28;19975;-72
2023/09/23 01:26:59;;;;;;;;;;;;;;;9.43;100.00;100724.31;4996972;28;19921;-72
2023/09/23 01:29:26;;;;;;;;;;;;;;;9.46;100.00;100726.75;4995078;28;19913;-73
2023/09/23 01:32:15;;;;;;;;;;;;;;;9.49;100.00;100729.22;4980728;28;20887;-72
2023/09/23 01:34:41;;;;;;;;;;;;;;;9.57;100.00;100729.50;4994655;28;20028;-72
2023/09/23 01:37:06;;;;;;;;;;;;;;;9.59;100.00;100732.94;5011989;28;19926;-73
2023/09/23 01:39:32;;;;;;;;;;;;;;;9.59;100.00;100735.59;4978706;28;20392;-74
2023/09/23 01:41:57;;;;;;;;;;;;;;;9.64;100.00;100731.72;4992334;28;20023;-75
2023/09/23 01:44:22;;;;;;;;;;;;;;;9.64;100.00;100737.09;5013221;28;19944;-73
2023/09/23 01:46:47;;;;;;;;;;;;;;;9.70;100.00;100736.59;5009799;28;19964;-74
2023/09/23 01:49:13;;;;;;;;;;;;;;;9.71;100.00;100738.31;4995225;28;20392;-74
2023/09/23 01:51:38;;;;;;;;;;;;;;;9.72;100.00;100735.53;4982103;28;20451;-74
2023/09/23 01:54:04;;;;;;;;;;;;;;;9.81;100.00;100722.38;5011347;28;19940;-73
2023/09/23 01:56:31;;;;;;;;;;;;;;;9.81;100.00;100747.38;4977896;28;19968;-73
2023/09/23 01:58:56;;;;;;;;;;;;;;;9.83;100.00;100739.19;4992969;28;20431;-74
2023/09/23 02:01:22;;;;;;;;;;;;;;;9.87;100.00;100740.69;5012694;28;19921;-74
2023/09/23 02:03:47;;;;;;;;;;;;;;;9.84;100.00;100740.91;4995612;28;19923;-73
2023/09/23 02:06:12;;;;;;;;;;;;;;;9.89;100.00;100738.75;4994668;28;19932;-76
2023/09/23 02:08:38;;;;;;;;;;;;;;;9.90;100.00;100735.09;4993578;28;20390;-75
2023/09/23 02:11:03;;;;;;;;;;;;;;;9.92;100.00;100743.03;4994623;28;20430;-74
2023/09/23 02:13:28;;;;;;;;;;;;;;;9.95;100.00;100758.88;4981999;28;20633;-73
2023/09/23 02:15:55;;;;;;;;;;;;;;;9.99;100.00;100758.53;4993884;28;19925;-72
2023/09/23 02:18:21;;;;;;;;;;;;;;;9.96;100.00;100760.56;4995868;28;20344;-73
2023/09/23 02:20:47;;;;;;;;;;;;;;;9.96;100.00;100765.94;4998033;28;19965;-75
2023/09/23 02:23:12;;;;;;;;;;;;;;;9.97;100.00;100762.28;4993504;28;19988;-73
2023/09/23 02:25:37;;;;;;;;;;;;;;;9.99;100.00;100761.22;4993595;28;19929;-73
2023/09/23 02:28:03;;;;;;;;;;;;;;;9.96;100.00;100766.81;5009994;28;20372;-73
2023/09/23 02:30:29;;;;;;;;;;;;;;;9.87;100.00;100752.28;4995155;28;19969;-73
2023/09/23 02:32:54;;;;;;;;;;;;;;;9.95;100.00;100767.78;4995060;28;19926;-74
2023/09/23 02:35:19;;;;;;;;;;;;;;;10.02;100.00;100769.03;4978474;28;20140;-74
2023/09/23 02:37:45;;;;;;;;;;;;;;;10.02;100.00;100773.53;5008082;28;19918;-73
2023/09/23 02:40:15;;;;;;;;;;;;;;;10.02;100.00;100777.06;5009493;28;19966;-73
2023/09/23 02:42:47;;;;;;;;;;;;;;;9.99;100.00;100771.94;4994053;28;19922;-75
2023/09/23 02:45:13;;;;;;;;;;;;;;;10.01;100.00;100772.69;4994015;28;20394;-73
2023/09/23 02:47:39;;;;;;;;;;;;;;;9.97;100.00;100776.56;4980484;28;20014;-74
2023/09/23 02:50:09;;;;;;;;;;;;;;;9.96;100.00;100782.91;4975748;28;19928;-74
2023/09/23 02:52:34;;;;;;;;;;;;;;;9.99;100.00;100792.53;4992863;28;20241;-73
2023/09/23 02:54:59;;;;;;;;;;;;;;;9.97;100.00;100795.34;4994162;28;20323;-74
2023/09/23 02:57:25;;;;;;;;;;;;;;;9.97;100.00;100795.34;4978754;28;20018;-73
2023/09/23 02:59:56;;;;;;;;;;;;;;;9.94;100.00;100800.06;4977727;28;19960;-73
2023/09/23 03:02:27;;;;;;;;;;;;;;;9.87;100.00;100795.19;4980592;28;19928;-74
2023/09/23 03:04:58;;;;;;;;;;;;;;;9.95;100.00;100796.41;4994320;28;19926;-75
2023/09/23 03:07:24;;;;;;;;;;;;;;;9.89;100.00;100801.28;4994053;28;19926;-75
2023/09/23 03:09:55;;;;;;;;;;;;;;;9.90;100.00;100786.91;4975073;28;19921;-73
2023/09/23 03:12:23;;;;;;;;;;;;;;;9.89;100.00;100805.78;4993813;28;20242;-73
2023/09/23 03:14:51;;;;;;;;;;;;;;;9.89;100.00;100803.09;4993221;28;20007;-73
2023/09/23 03:17:21;;;;;;;;;;;;;;;9.90;100.00;100811.06;4994174;28;19922;-76
2023/09/23 03:19:50;;;;;;;;;;;;;;;9.91;100.00;100806.53;4984478;28;19962;-73
2023/09/23 03:22:15;;;;;;;;;;;;;;;9.93;100.00;100804.59;4992419;28;19965;-73
2023/09/23 03:24:41;;;;;;;;;;;;;;;9.97;100.00;100798.03;4975689;28;20336;-74
2023/09/23 03:27:06;;;;;;;;;;;;;;;9.97;100.00;100802.53;4993390;28;20283;-76
2023/09/23 03:29:32;;;;;;;;;;;;;;;9.94;100.00;100811.66;4994839;28;19921;-73
2023/09/23 03:31:58;;;;;;;;;;;;;;;9.90;100.00;100803.00;4992988;28;20281;-75
2023/09/23 03:34:23;;;;;;;;;;;;;;;9.95;100.00;100821.41;4995300;28;19927;-76
2023/09/23 03:36:50;;;;;;;;;;;;;;;9.95;100.00;100809.81;4993814;28;19929;-75
2023/09/23 03:39:17;;;;;;;;;;;;;;;9.96;100.00;100823.13;4992997;28;19930;-74
2023/09/23 03:41:46;;;;;;;;;;;;;;;10.02;100.00;100822.69;5009845;28;19925;-73
2023/09/23 03:44:14;;;;;;;;;;;;;;;10.02;100.00;100813.75;5008349;28;19948;-77
2023/09/23 03:46:39;;;;;;;;;;;;;;;10.04;100.00;100817.19;4992467;28;19925;-74
2023/09/23 03:49:05;;;;;;;;;;;;;;;10.05;100.00;100824.25;4994839;28;19921;-74
2023/09/23 03:51:31;;;;;;;;;;;;;;;10.06;100.00;100832.19;4993858;28;19925;-74
2023/09/23 03:53:56;;;;;;;;;;;;;;;10.10;100.00;100832.81;5009296;28;19944;-74
2023/09/23 03:56:27;;;;;;;;;;;;;;;10.12;100.00;100838.94;5007961;28;20364;-73
2023/09/23 03:58:55;;;;;;;;;;;;;;;10.14;100.00;100836.13;4992284;28;19922;-74
2023/09/23 04:01:21;;;;;;;;;;;;;;;10.13;100.00;100834.41;4993305;28;20740;-72
2023/09/23 04:03:47;;;;;;;;;;;;;;;10.10;100.00;100862.31;4994052;28;19925;-76
2023/09/23 04:06:12;;;;;;;;;;;;;;;10.09;100.00;100859.75;4990116;28;19926;-76
2023/09/23 04:08:37;;;;;;;;;;;;;;;10.02;100.00;100862.91;4990631;28;20404;-78
2023/09/23 04:11:04;;;;;;;;;;;;;;;10.03;100.00;100858.38;4995902;28;20402;-75
2023/09/23 04:13:30;;;;;;;;;;;;;;;10.05;100.00;100854.63;4989583;28;19964;-73
2023/09/23 04:16:02;;;;;;;;;;;;;;;10.01;100.00;100858.53;4988951;28;20373;-75
2023/09/23 04:18:27;;;;;;;;;;;;;;;9.96;100.00;100860.69;4988716;28;20690;-74
2023/09/23 04:20:53;;;;;;;;;;;;;;;9.88;100.00;100860.38;4977010;28;19979;-73
2023/09/23 04:23:18;;;;;;;;;;;;;;;9.93;100.00;100865.44;5007280;28;20223;-73
2023/09/23 04:25:44;;;;;;;;;;;;;;;9.86;100.00;100867.69;5005698;28;20363;-75
2023/09/23 04:28:09;;;;;;;;;;;;;;;9.87;100.00;100858.69;4994601;28;20420;-73
2023/09/23 04:30:35;;;;;;;;;;;;;;;9.87;100.00;100859.56;4993579;28;19921;-74
2023/09/23 04:33:01;;;;;;;;;;;;;;;9.92;100.00;100867.25;4995837;28;20375;-72
2023/09/23 04:35:26;;;;;;;;;;;;;;;9.89;100.00;100871.03;4995618;28;19921;-72
2023/09/23 04:37:51;;;;;;;;;;;;;;;9.82;100.00;100872.44;4995611;28;20467;-74
2023/09/23 04:40:18;;;;;;;;;;;;;;;9.81;100.00;100880.59;5006286;28;20023;-73
2023/09/23 04:42:43;;;;;;;;;;;;;;;9.82;100.00;100890.34;4993654;28;19959;-73
2023/09/23 04:45:09;;;;;;;;;;;;;;;9.77;100.00;100889.84;4995291;28;20374;-76
2023/09/23 04:47:35;;;;;;;;;;;;;;;9.72;100.00;100896.41;4992654;28;20055;-73
2023/09/23 04:50:01;;;;;;;;;;;;;;;9.45;100.00;100856.38;4995883;28;19941;-72
2023/09/23 04:52:27;;;;;;;;;;;;;;;9.65;100.00;100895.13;4975236;28;19997;-74
2023/09/23 04:54:53;;;;;;;;;;;;;;;9.70;100.00;100895.66;5008969;28;19917;-77
2023/09/23 04:57:18;;;;;;;;;;;;;;;9.67;100.00;100900.38;4993669;28;19948;-76
2023/09/23 04:59:43;;;;;;;;;;;;;;;9.63;100.00;100890.84;4997259;28;19956;-74
2023/09/23 05:02:09;;;;;;;;;;;;;;;9.61;100.00;100896.31;4992185;28;19921;-80
2023/09/23 05:04:34;;;;;;;;;;;;;;;9.65;100.00;100896.97;4994209;28;20277;-77
2023/09/23 05:07:00;;;;;;;;;;;;;;;9.59;100.00;100899.13;4974046;28;20395;-80
2023/09/23 05:09:25;;;;;;;;;;;;;;;9.51;100.00;100903.34;4990363;28;19925;-75
2023/09/23 05:11:51;;;;;;;;;;;;;;;9.56;100.00;100907.38;4991978;28;19922;-75
2023/09/23 05:14:17;;;;;;;;;;;;;;;9.58;100.00;100907.25;4990686;28;19971;-74
2023/09/23 05:16:42;;;;;;;;;;;;;;;9.49;100.00;100913.31;4990140;28;20074;-76
2023/09/23 05:19:09;;;;;;;;;;;;;;;9.49;100.00;100916.81;5000492;28;19944;-75
2023/09/23 05:21:35;;;;;;;;;;;;;;;9.48;100.00;100920.47;4995283;28;19922;-73
2023/09/23 05:24:01;;;;;;;;;;;;;;;9.43;100.00;100925.31;4996795;28;19974;-77
2023/09/23 05:26:26;;;;;;;;;;;;;;;9.43;100.00;100930.66;4998760;28;20019;-76
2023/09/23 05:28:52;;;;;;;;;;;;;;;9.47;100.00;100942.03;4995388;28;20395;-74
2023/09/23 05:31:17;;;;;;;;;;;;;;;9.44;100.00;100943.97;4996243;28;19973;-77
2023/09/23 05:33:42;;;;;;;;;;;;;;;9.45;100.00;100953.72;4998182;28;19937;-77
2023/09/23 05:36:08;;;;;;;;;;;;;;;9.44;100.00;100949.31;4995608;28;19922;-76
2023/09/23 05:38:36;;;;;;;;;;;;;;;9.47;100.00;100955.44;4991533;28;19936;-79
2023/09/23 05:41:01;;;;;;;;;;;;;;;9.40;100.00;100952.34;4981556;28;19921;-77
2023/09/23 05:43:27;;;;;;;;;;;;;;;9.39;100.00;100950.63;4980125;28;19980;-76
2023/09/23 05:45:52;;;;;;;;;;;;;;;9.41;100.00;100967.44;4997088;28;19925;-78
2023/09/23 05:48:17;;;;;;;;;;;;;;;9.42;100.00;100961.97;4995789;28;19932;-77
2023/09/23 05:50:43;;;;;;;;;;;;;;;9.47;100.00;100967.00;4993649;28;19925;-77
2023/09/23 05:53:08;;;;;;;;;;;;;;;9.56;100.00;100981.56;4990020;28;19973;-74
2023/09/23 05:55:33;;;;;;;;;;;;;;;9.66;100.00;100979.09;4996016;28;20371;-75
2023/09/23 05:57:58;;;;;;;;;;;;;;;9.57;100.00;100988.63;4990267;28;19960;-77
2023/09/23 06:00:24;;;;;;;;;;;;;;;9.59;100.00;100992.94;4991485;28;19929;-80
2023/09/23 06:02:49;;;;;;;;;;;;;;;9.75;100.00;101005.25;4994282;28;19960;-73
2023/09/23 06:05:14;;;;;;;;;;;;;;;9.79;100.00;101008.56;4990322;28;19965;-74
2023/09/23 06:07:41;;;;;;;;;;;;;;;9.80;100.00;101007.59;4989773;28;19925;-76
2023/09/23 06:10:06;;;;;;;;;;;;;;;9.83;100.00;101010.91;4995497;28;19922;-76
2023/09/23 06:12:32;;;;;;;;;;;;;;;9.87;100.00;101016.91;4997605;28;19922;-76
2023/09/23 06:14:57;;;;;;;;;;;;;;;9.94;100.00;101018.19;4978330;28;19921;-75
2023/09/23 06:17:23;;;;;;;;;;;;;;;9.87;100.00;101028.50;4992976;28;20352;-76
2023/09/23 06:19:48;;;;;;;;;;;;;;;9.89;100.00;101037.31;4995260;28;20271;-75
2023/09/23 06:22:13;;;;;;;;;;;;;;;9.92;100.00;101043.41;4992214;28;20443;-77
2023/09/23 06:24:38;;;;;;;;;;;;;;;9.98;100.00;101054.56;4987410;28;20367;-76
2023/09/23 06:27:03;;;;;;;;;;;;;;;10.02;100.00;101049.81;4995136;28;19926;-75
2023/09/23 06:29:30;;;;;;;;;;;;;;;10.02;100.00;101058.72;4993522;28;19936;-76
2023/09/23 06:31:55;;;;;;;;;;;;;;;10.04;100.00;101053.25;4993583;28;19956;-74
2023/09/23 06:34:20;;;;;;;;;;;;;;;10.09;100.00;101059.13;4994196;28;20025;-75
2023/09/23 06:36:46;;;;;;;;;;;;;;;10.02;100.00;101063.22;4994629;28;20311;-75
2023/09/23 06:39:11;;;;;;;;;;;;;;;10.02;100.00;101073.94;4995961;28;19929;-79
2023/09/23 06:41:37;;;;;;;;;;;;;;;10.10;100.00;101087.69;4995896;28;20263;-76
2023/09/23 06:44:03;;;;;;;;;;;;;;;10.16;100.00;101095.31;4995940;28;19921;-76
2023/09/23 06:46:28;;;;;;;;;;;;;;;10.19;100.00;101092.41;4993042;28;20343;-71
2023/09/23 06:48:54;;;;;;;;;;;;;;;10.24;100.00;101088.50;4996532;28;19972;-71
2023/09/23 06:51:19;;;;;;;;;;;;;;;10.25;100.00;101099.13;4997471;28;20182;-72
2023/09/23 06:53:44;;;;;;;;;;;;;;;10.24;100.00;101104.59;4991646;28;19944;-75
2023/09/23 06:56:09;;;;;;;;;;;;;;;10.35;100.00;101110.91;4995865;28;19956;-71
2023/09/23 06:58:34;;;;;;;;;;;;;;;10.36;100.00;101109.94;4989174;28;19999;-73
2023/09/23 07:01:00;;;;;;;;;;;;;;;10.37;100.00;101113.50;4990961;28;19921;-73
2023/09/23 07:03:25;;;;;;;;;;;;;;;10.42;100.00;101107.81;4995404;28;19964;-74
2023/09/23 07:05:50;;;;;;;;;;;;;;;10.47;100.00;101114.53;4992380;28;20032;-71
2023/09/23 07:08:16;;;;;;;;;;;;;;;10.59;100.00;101120.00;5000430;28;19921;-71
2023/09/23 07:10:41;;;;;;;;;;;;;;;10.63;100.00;101127.72;5000502;28;19952;-71
2023/09/23 07:13:06;;;;;;;;;;;;;;;10.79;100.00;101135.50;5000672;28;19926;-71
2023/09/23 07:15:38;;;;;;;;;;;;;;;10.97;100.00;101147.66;4995077;28;19921;-72
2023/09/23 07:18:04;;;;;;;;;;;;;;;11.10;100.00;101143.94;4992889;28;19922;-72
2023/09/23 07:20:29;;;;;;;;;;;;;;;11.16;100.00;101157.91;4975695;28;19958;-71
2023/09/23 07:22:54;;;;;;;;;;;;;;;11.28;100.00;101166.88;4991887;28;19951;-71
2023/09/23 07:25:19;;;;;;;;;;;;;;;11.35;100.00;101162.75;4996374;28;19925;-72
2023/09/23 07:27:45;;;;;;;;;;;;;;;11.17;100.00;101155.09;4986078;28;19929;-70
2023/09/23 07:30:12;;;;;;;;;;;;;;;11.20;100.00;101179.03;4986428;28;20444;-69
2023/09/23 07:32:37;;;;;;;;;;;;;;;11.22;100.00;101181.63;4990962;28;20075;-69
2023/09/23 07:35:03;;;;;;;;;;;;;;;11.31;100.00;101197.06;4994148;28;19927;-70
2023/09/23 07:37:28;;;;;;;;;;;;;;;11.49;100.00;101199.34;5002276;28;19952;-71
2023/09/23 07:39:54;;;;;;;;;;;;;;;11.71;100.00;101203.91;4989274;28;19934;-71
2023/09/23 07:42:19;;;;;;;;;;;;;;;11.90;100.00;101206.03;4990576;28;20134;-71
2023/09/23 07:44:44;;;;;;;;;;;;;;;11.97;100.00;101172.31;4993456;28;19921;-70
2023/09/23 07:47:09;;;;;;;;;;;;;;;12.27;100.00;101208.59;4990234;28;19927;-73
2023/09/23 07:49:35;;;;;;;;;;;;;;;12.39;100.00;101201.34;4973514;28;20363;-73
2023/09/23 07:52:00;;;;;;;;;;;;;;;12.32;100.00;101204.63;4987366;28;20054;-71
2023/09/23 07:54:25;;;;;;;;;;;;;;;12.36;100.00;101211.50;4981057;28;19921;-71
2023/09/23 07:56:50;;;;;;;;;;;;;;;12.31;100.00;101214.56;4999535;28;20007;-73
2023/09/23 07:59:16;;;;;;;;;;;;;;;12.32;100.00;101223.47;4996333;28;20043;-72
2023/09/23 08:01:41;;;;;;;;;;;;;;;12.36;100.00;101222.28;4996878;28;19925;-71
2023/09/23 08:04:06;;;;;;;;;;;;;;;12.29;100.00;101225.47;5001005;28;19921;-73
2023/09/23 08:06:31;;;;;;;;;;;;;;;12.45;100.00;101225.09;4997639;28;19925;-72
2023/09/23 08:08:57;;;;;;;;;;;;;;;12.73;100.00;101236.34;4999925;28;19956;-72
2023/09/23 08:11:22;;;;;;;;;;;;;;;12.91;100.00;101246.63;4997205;28;20012;-75
2023/09/23 08:13:48;;;;;;;;;;;;;;;12.85;100.00;101239.03;4978971;28;19917;-73
2023/09/23 08:16:13;;;;;;;;;;;;;;;13.03;100.00;101240.22;4981154;28;20379;-73
2023/09/23 08:18:38;;;;;;;;;;;;;;;12.88;100.00;101249.56;4980116;28;19922;-71
2023/09/23 08:21:06;;;;;;;;;;;;;;;12.93;100.00;101247.34;5020555;28;19945;-72
2023/09/23 08:23:31;;;;;;;;;;;;;;;12.93;100.00;101252.75;5000068;28;19921;-71
2023/09/23 08:25:56;;;;;;;;;;;;;;;13.09;100.00;101260.44;5004305;28;19926;-72
2023/09/23 08:28:22;;;;;;;;;;;;;;;13.24;100.00;101258.31;4984407;28;19921;-71
2023/09/23 08:30:50;;;;;;;;;;;;;;;13.28;100.00;101265.16;5006795;28;19956;-72
2023/09/23 08:33:15;;;;;;;;;;;;;;;13.42;100.00;101266.72;5001931;28;20265;-72
2023/09/23 08:35:42;;;;;;;;;;;;;;;13.46;100.00;101267.34;5001918;28;19925;-71
2023/09/23 08:38:08;;;;;;;;;;;;;;;13.53;100.00;101276.63;5000824;28;19918;-71
2023/09/23 08:40:34;;;;;;;;;;;;;;;13.68;100.00;101276.34;5001060;28;19928;-71
2023/09/23 08:43:01;;;;;;;;;;;;;;;13.86;100.00;101276.63;5000634;28;19921;-70
2023/09/23 08:45:26;;;;;;;;;;;;;;;13.69;100.00;101283.44;4999686;28;20724;-75
2023/09/23 08:47:51;;;;;;;;;;;;;;;13.85;100.00;101291.94;5009778;28;19964;-70
2023/09/23 08:50:17;;;;;;;;;;;;;;;13.84;100.00;101305.59;4987929;28;19979;-72
2023/09/23 08:52:42;;;;;;;;;;;;;;;13.80;100.00;101295.03;4997750;28;19953;-71
2023/09/23 08:55:07;;;;;;;;;;;;;;;13.79;100.00;101304.13;5002381;28;20091;-71
2023/09/23 08:57:33;;;;;;;;;;;;;;;13.82;100.00;101302.16;4998080;28;19918;-71
2023/09/23 08:59:58;;;;;;;;;;;;;;;13.84;100.00;101303.72;5003635;28;19964;-71
2023/09/23 09:02:25;;;;;;;;;;;;;;;13.82;100.00;101299.47;5001448;28;21710;-71
2023/09/23 09:04:57;;;;;;;;;;;;;;;14.06;100.00;101316.28;5002410;28;19962;-71
2023/09/23 09:07:23;;;;;;;;;;;;;;;14.21;100.00;101308.72;4999762;28;19936;-70
2023/09/23 09:09:48;;;;;;;;;;;;;;;14.36;100.00;101311.06;5002037;28;19972;-70
2023/09/23 09:12:13;;;;;;;;;;;;;;;13.94;100.00;101311.91;4997313;28;19925;-72
2023/09/23 09:14:39;;;;;;;;;;;;;;;14.34;100.00;101315.72;5001003;28;19929;-73
2023/09/23 09:17:08;;;;;;;;;;;;;;;14.38;100.00;101312.66;4999282;28;19913;-76
2023/09/23 09:19:35;;;;;;;;;;;;;;;14.42;100.00;101315.94;4992017;28;19968;-72
2023/09/23 09:22:00;;;;;;;;;;;;;;;14.53;100.00;101321.28;4987050;28;19928;-72
2023/09/23 09:24:25;;;;;;;;;;;;;;;14.61;100.00;101317.91;4997727;28;19921;-72
2023/09/23 09:26:51;;;;;;;;;;;;;;;14.77;100.00;101330.94;4978882;28;19972;-72
2023/09/23 09:29:16;;;;;;;;;;;;;;;14.80;100.00;101327.09;4987736;28;20443;-72
2023/09/23 09:31:41;;;;;;;;;;;;;;;14.57;100.00;101327.25;4979740;28;20351;-71
2023/09/23 09:34:10;;;;;;;;;;;;;;;14.42;100.00;101337.53;4986128;28;20059;-73
2023/09/23 09:36:36;;;;;;;;;;;;;;;14.54;100.00;101333.78;4974932;28;20034;-73
2023/09/23 09:39:04;;;;;;;;;;;;;;;14.74;100.00;101335.75;4993023;28;19933;-71
2023/09/23 09:41:30;;;;;;;;;;;;;;;14.62;100.00;101340.34;4990193;28;20954;-72
2023/09/23 09:43:55;;;;;;;;;;;;;;;14.75;100.00;101340.16;4991553;28;19927;-71
2023/09/23 09:46:20;;;;;;;;;;;;;;;14.66;100.00;101345.38;4990724;28;19936;-73
2023/09/23 09:48:46;;;;;;;;;;;;;;;14.85;100.00;101351.91;5004071;28;19924;-73
2023/09/23 09:51:15;;;;;;;;;;;;;;;14.98;100.00;101352.50;4983945;28;19956;-74
2023/09/23 09:53:40;;;;;;;;;;;;;;;15.40;100.00;101346.09;4972373;28;19937;-71
2023/09/23 09:56:06;;;;;;;;;;;;;;;15.34;100.00;101356.63;4997064;28;19921;-72
2023/09/23 09:58:37;;;;;;;;;;;;;;;15.45;100.00;101341.13;4991565;28;19952;-70
2023/09/23 10:01:03;;;;;;;;;;;;;;;15.36;100.00;101343.81;5000269;28;19917;-72
2023/09/23 10:03:28;;;;;;;;;;;;;;;15.43;100.00;101358.50;4985081;28;19956;-71
2023/09/23 10:05:58;;;;;;;;;;;;;;;14.89;100.00;101358.75;4988063;28;20391;-72
2023/09/23 10:08:26;;;;;;;;;;;;;;;14.95;100.00;101360.03;4989090;28;20044;-71
2023/09/23 10:10:58;;;;;;;;;;;;;;;14.83;100.00;101365.53;4991336;28;19925;-71
2023/09/23 10:13:23;;;;;;;;;;;;;;;14.72;100.00;101370.16;5003759;28;19952;-70
2023/09/23 10:15:48;;;;;;;;;;;;;;;14.67;100.00;101373.25;4987912;28;20031;-70
2023/09/23 10:18:15;;;;;;;;;;;;;;;14.59;100.00;101376.63;4995558;28;19921;-70
2023/09/23 10:20:42;;;;;;;;;;;;;;;14.43;100.00;101376.25;4997119;28;19956;-71
2023/09/23 10:23:07;;;;;;;;;;;;;;;14.33;100.00;101374.31;4987268;28;19928;-70
2023/09/23 10:25:36;;;;;;;;;;;;;;;14.29;100.00;101380.13;4990566;28;19926;-71
2023/09/23 10:28:03;;;;;;;;;;;;;;;14.36;100.00;101382.16;4981487;28;19925;-71
2023/09/23 10:30:28;;;;;;;;;;;;;;;14.48;100.00;101391.06;5001343;28;19928;-70
2023/09/23 10:32:54;;;;;;;;;;;;;;;14.68;100.00;101399.28;4998330;28;19922;-71
2023/09/23 10:35:23;;;;;;;;;;;;;;;14.74;100.00;101403.31;5010052;28;19925;-71
2023/09/23 10:37:48;;;;;;;;;;;;;;;14.90;100.00;101397.44;5011238;28;20974;-71
2023/09/23 10:40:13;;;;;;;;;;;;;;;15.01;100.00;101394.66;4999361;28;19930;-71
2023/09/23 10:42:41;;;;;;;;;;;;;;;15.23;100.00;101400.88;5008137;28;20089;-71
2023/09/23 10:45:06;;;;;;;;;;;;;;;15.85;100.00;101403.47;5003589;28;20055;-71
2023/09/23 10:47:31;;;;;;;;;;;;;;;16.58;100.00;101392.19;5005095;28;20747;-71
2023/09/23 10:49:57;;;;;;;;;;;;;;;17.58;100.00;101404.41;5001756;28;19922;-70
2023/09/23 10:52:22;;;;;;;;;;;;;;;17.24;100.00;101408.59;4981025;28;19924;-71
2023/09/23 10:54:48;;;;;;;;;;;;;;;16.97;100.00;101401.25;5005545;28;19936;-71
2023/09/23 10:57:13;;;;;;;;;;;;;;;17.10;100.00;101407.22;4982552;28;19949;-72
2023/09/23 10:59:38;;;;;;;;;;;;;;;17.21;100.00;101400.75;4997399;28;20011;-71
2023/09/23 11:02:05;;;;;;;;;;;;;;;17.16;100.00;101401.19;4986003;28;19921;-70
2023/09/23 11:04:30;;;;;;;;;;;;;;;16.82;100.00;101415.25;5005664;28;19922;-70
2023/09/23 11:06:56;;;;;;;;;;;;;;;16.60;100.00;101416.44;5004988;28;20018;-72
2023/09/23 11:09:22;;;;;;;;;;;;;;;16.80;100.00;101419.97;5005102;28;19963;-73
2023/09/23 11:11:47;;;;;;;;;;;;;;;16.86;100.00;101426.66;4987373;28;19921;-70
2023/09/23 11:14:15;;;;;;;;;;;;;;;16.61;100.00;101429.88;5005280;28;19917;-71
2023/09/23 11:16:44;;;;;;;;;;;;;;;16.96;100.00;101430.25;5001476;28;19948;-72
2023/09/23 11:19:09;;;;;;;;;;;;;;;17.19;100.00;101440.72;5006244;28;19976;-70
2023/09/23 11:21:41;;;;;;;;;;;;;;;17.29;100.00;101435.25;4978227;28;20462;-70
2023/09/23 11:24:07;;;;;;;;;;;;;;;17.71;100.00;101434.78;4986324;28;20273;-71
2023/09/23 11:26:32;;;;;;;;;;;;;;;17.18;100.00;101434.47;5001522;28;19929;-71
2023/09/23 11:28:57;;;;;;;;;;;;;;;16.41;100.00;101434.44;5003769;28;19932;-73
2023/09/23 11:31:23;;;;;;;;;;;;;;;16.69;100.00;101437.25;5013988;28;19949;-73
2023/09/23 11:33:48;;;;;;;;;;;;;;;16.70;100.00;101433.56;5003579;28;20273;-71
2023/09/23 11:36:13;;;;;;;;;;;;;;;16.12;100.00;101446.13;5009924;28;19920;-71
2023/09/23 11:38:40;;;;;;;;;;;;;;;16.36;100.00;101452.97;5002108;28;20119;-71
2023/09/23 11:41:05;;;;;;;;;;;;;;;16.28;100.00;101452.84;5003793;28;19928;-70
2023/09/23 11:43:30;;;;;;;;;;;;;;;15.98;100.00;101457.38;5006472;28;19917;-69
2023/09/23 11:45:55;;;;;;;;;;;;;;;15.86;100.00;101453.94;4986745;28;20084;-71
2023/09/23 11:48:20;;;;;;;;;;;;;;;16.10;100.00;101458.94;5004686;28;19936;-71
2023/09/23 11:50:46;;;;;;;;;;;;;;;16.21;100.00;101457.97;4998332;28;19949;-69
2023/09/23 11:53:13;;;;;;;;;;;;;;;16.36;100.00;101457.56;4985458;28;20048;-69
2023/09/23 11:55:38;;;;;;;;;;;;;;;16.23;100.00;101461.38;4987885;28;19928;-70
2023/09/23 11:58:03;;;;;;;;;;;;;;;16.25;100.00;101462.09;5002840;28;19922;-71
2023/09/23 12:00:29;;;;;;;;;;;;;;;16.31;100.00;101471.50;5001906;28;20056;-71
2023/09/23 12:02:54;;;;;;;;;;;;;;;16.41;100.00;101468.84;5002785;28;20387;-72
2023/09/23 12:05:20;;;;;;;;;;;;;;;16.52;100.00;101470.53;5003499;28;19937;-72
2023/09/23 12:07:45;;;;;;;;;;;;;;;16.15;100.00;101474.81;4999974;28;19924;-71
2023/09/23 12:10:15;;;;;;;;;;;;;;;16.27;100.00;101479.06;5002113;28;19921;-69
2023/09/23 12:12:42;;;;;;;;;;;;;;;15.99;100.00;101469.94;4996007;28;19928;-72
2023/09/23 12:15:08;;;;;;;;;;;;;;;16.26;100.00;101495.50;5001699;28;20012;-74
2023/09/23 12:17:34;;;;;;;;;;;;;;;16.44;100.00;101491.06;5006444;28;19921;-74
2023/09/23 12:19:59;;;;;;;;;;;;;;;16.74;100.00;101501.91;5001608;28;19967;-74
2023/09/23 12:22:24;;;;;;;;;;;;;;;17.04;100.00;101497.31;5000062;28;20435;-73
2023/09/23 12:24:50;;;;;;;;;;;;;;;18.65;100.00;101497.06;5002864;28;20004;-72